Time;durP1;ratioP1;P1;durP2;ratioP2;P2;SDS_P1;SDS_P2;PMS_P1;PMS_P2;Temp;Humidity;BMP_temperature;BMP_pressure;BME280_temperature;BME280_humidity;BME280_pressure;Samples;Min_cycle;Max_cycle;Signal;HPM_P1;HPM_P2
2022/11/05 00:09:29;;;;;;;25.90;14.30;;;;;;;9.07;71.54;99315.30;99716;1294;96581;-78
2022/11/05 00:17:27;;;;;;;27.20;14.40;;;;;;;9.04;71.47;99302.05;99663;1300;110271;-78
2022/11/05 00:19:54;;;;;;;22.50;14.60;;;;;;;9.02;71.53;99306.14;99457;1293;137349;-77
2022/11/05 00:25:15;;;;;;;24.80;14.40;;;;;;;9.01;71.60;99316.08;99539;1295;138311;-77
2022/11/05 00:27:42;;;;;;;23.30;14.20;;;;;;;8.99;71.70;99316.86;99691;1295;96514;-77
2022/11/05 00:30:12;;;;;;;25.40;14.00;;;;;;;8.97;71.78;99322.29;99473;1293;138811;-77
2022/11/05 00:32:39;;;;;;;26.00;13.20;;;;;;;8.97;71.86;99321.09;101100;1286;106606;-78
2022/11/05 00:35:07;;;;;;;21.30;13.70;;;;;;;8.96;71.85;99315.39;101218;1285;94910;-78
2022/11/05 00:37:34;;;;;;;22.90;13.80;;;;;;;8.96;71.96;99302.56;101050;1302;138458;-77
2022/11/05 00:40:01;;;;;;;28.40;14.80;;;;;;;8.96;71.83;99311.23;101191;1299;94649;-78
2022/11/05 00:45:13;;;;;;;27.50;14.10;;;;;;;8.98;71.91;99322.44;101164;1297;106689;-78
2022/11/05 00:50:27;;;;;;;28.20;13.80;;;;;;;8.98;71.92;99306.30;99852;1293;107341;-79
2022/11/05 00:52:56;;;;;;;23.60;14.20;;;;;;;8.97;72.19;99295.05;99706;1293;96500;-77
2022/11/05 00:55:23;;;;;;;27.10;14.80;;;;;;;8.96;72.12;99289.58;99730;1296;137787;-78
2022/11/05 00:57:51;;;;;;;28.10;14.90;;;;;;;8.94;72.07;99289.45;99784;1291;106687;-76
2022/11/05 01:00:18;;;;;;;26.90;14.30;;;;;;;8.92;72.16;99290.09;99815;1290;138259;-77
2022/11/05 01:02:45;;;;;;;28.00;15.30;;;;;;;8.89;72.17;99296.95;99896;1296;107772;-76
2022/11/05 01:05:13;;;;;;;26.50;15.10;;;;;;;8.88;72.27;99293.36;99803;1295;97720;-77
2022/11/05 01:07:40;;;;;;;24.90;14.00;;;;;;;8.87;72.31;99284.92;99841;1282;138129;-77
2022/11/05 01:10:08;;;;;;;20.70;14.10;;;;;;;8.86;72.23;99284.95;99862;1291;106221;-77
2022/11/05 01:12:35;;;;;;;31.00;14.80;;;;;;;8.86;72.28;99284.94;99667;1296;138252;-77
2022/11/05 01:15:02;;;;;;;25.50;14.30;;;;;;;8.87;72.41;99286.46;99826;1299;107450;-77
2022/11/05 01:17:29;;;;;;;24.90;14.00;;;;;;;8.89;72.32;99292.81;99866;1298;96501;-77
2022/11/05 01:19:56;;;;;;;25.50;15.40;;;;;;;8.89;72.42;99294.70;99763;1293;139356;-78
2022/11/05 01:22:23;;;;;;;24.20;14.50;;;;;;;8.89;72.43;99294.00;99889;1296;107412;-77
2022/11/05 01:24:50;;;;;;;25.00;14.90;;;;;;;8.88;72.37;99298.73;99840;1297;138104;-77
2022/11/05 01:27:18;;;;;;;26.00;14.80;;;;;;;8.85;72.43;99305.96;99835;1296;106447;-78
2022/11/05 01:29:45;;;;;;;28.40;15.80;;;;;;;8.84;72.49;99304.45;99865;1289;96500;-78
2022/11/05 01:32:12;;;;;;;25.80;14.30;;;;;;;8.83;72.56;99312.11;99732;1295;138195;-76
2022/11/05 01:34:39;;;;;;;28.00;14.80;;;;;;;8.84;72.50;99305.67;99860;1298;108074;-78
2022/11/05 01:37:06;;;;;;;26.40;14.60;;;;;;;8.85;72.49;99313.10;99766;1299;140620;-78
2022/11/05 01:39:33;;;;;;;25.00;14.60;;;;;;;8.86;72.62;99310.96;99853;1284;107921;-78
2022/11/05 01:42:00;;;;;;;23.90;14.40;;;;;;;8.88;72.55;99319.21;99854;1296;96585;-78
2022/11/05 01:44:57;;;;;;;22.30;14.30;;;;;;;8.89;72.55;99321.07;99799;1283;109903;-77
2022/11/05 01:47:38;;;;;;;25.60;14.10;;;;;;;8.89;72.53;99319.86;99759;1288;107368;-78
2022/11/05 01:50:17;;;;;;;29.40;15.30;;;;;;;8.87;72.57;99320.63;99817;1291;137308;-78
2022/11/05 01:52:44;;;;;;;29.30;14.70;;;;;;;8.84;72.60;99327.86;101402;1297;107881;-79
2022/11/05 01:55:13;;;;;;;25.40;14.90;;;;;;;8.84;72.58;99329.42;101277;1289;138105;-77
2022/11/05 01:57:40;;;;;;;24.60;14.80;;;;;;;8.83;72.69;99332.08;101396;1292;110068;-78
2022/11/05 02:00:09;;;;;;;26.90;13.90;;;;;;;8.82;72.78;99331.44;101289;1297;138715;-78
2022/11/05 02:02:38;;;;;;;25.80;14.80;;;;;;;8.81;72.98;99332.14;101419;1289;94535;-78
2022/11/05 02:05:09;;;;;;;26.60;14.30;;;;;;;8.79;73.02;99332.02;101375;1295;107790;-79
2022/11/05 02:07:37;;;;;;;30.00;14.40;;;;;;;8.77;73.13;99319.63;101342;1293;138925;-78
2022/11/05 02:10:07;;;;;;;22.60;14.30;;;;;;;8.77;73.09;99331.57;101513;1293;109400;-78
2022/11/05 02:12:36;;;;;;;29.50;14.90;;;;;;;8.79;73.17;99332.37;101237;1292;138318;-79
2022/11/05 02:15:03;;;;;;;25.40;14.20;;;;;;;8.80;73.16;99335.80;101353;1300;94496;-78
2022/11/05 02:17:42;;;;;;;25.80;15.20;;;;;;;8.81;73.12;99339.95;101412;1287;108179;-78
2022/11/05 02:20:25;;;;;;;28.90;15.30;;;;;;;8.81;73.11;99331.11;101374;1289;137570;-77
2022/11/05 02:23:14;;;;;;;27.00;15.80;;;;;;;8.80;73.16;99328.19;101449;1297;110866;-78
2022/11/05 02:26:06;;;;;;;24.40;14.50;;;;;;;8.77;73.35;99329.14;101301;1297;137467;-77
2022/11/05 02:28:54;;;;;;;27.50;15.00;;;;;;;8.74;73.49;99321.80;101006;1292;94879;-78
2022/11/05 02:31:31;;;;;;;26.10;14.10;;;;;;;8.71;73.63;99320.39;100885;1294;138115;-77
2022/11/05 02:34:04;;;;;;;27.20;15.30;;;;;;;8.67;73.86;99323.66;101006;1303;94652;-77
2022/11/05 02:36:41;;;;;;;25.80;15.30;;;;;;;8.66;74.00;99324.23;100915;1303;138500;-78
2022/11/05 02:39:19;;;;;;;31.00;13.40;;;;;;;8.66;74.15;99329.27;101024;1296;107211;-78
2022/11/05 02:41:55;;;;;;;27.00;14.50;;;;;;;8.65;74.15;99323.77;101010;1296;94673;-78
2022/11/05 02:44:41;;;;;;;25.10;13.50;;;;;;;8.65;74.45;99334.66;100967;1298;107998;-77
2022/11/05 02:47:15;;;;;;;25.20;15.30;;;;;;;8.63;74.43;99335.95;100975;1302;94734;-78
2022/11/05 02:49:51;;;;;;;22.50;13.90;;;;;;;8.61;74.72;99344.16;100969;1301;140517;-78
2022/11/05 02:52:25;;;;;;;25.20;14.70;;;;;;;8.59;74.83;99344.43;100992;1302;106310;-78
2022/11/05 02:54:58;;;;;;;24.00;13.60;;;;;;;8.54;74.79;99355.52;100904;1303;139776;-79
2022/11/05 02:57:28;;;;;;;24.80;14.00;;;;;;;8.52;75.03;99367.75;100951;1296;107901;-78
2022/11/05 03:00:05;;;;;;;24.60;14.80;;;;;;;8.48;75.14;99365.29;100992;1300;94751;-78
2022/11/05 03:02:31;;;;;;;;;;;;;;;8.47;75.24;99368.78;101048;1308;109945;-78
2022/11/05 03:04:59;;;;;;;25.00;14.20;;;;;;;8.46;75.39;99367.10;100956;1302;107919;-79
2022/11/05 03:07:38;;;;;;;24.60;14.60;;;;;;;8.44;75.40;99356.77;101100;1288;138211;-78
2022/11/05 03:10:33;;;;;;;23.20;14.80;;;;;;;8.46;75.56;99363.48;101318;1302;106884;-78
2022/11/05 03:13:10;;;;;;;23.90;14.80;;;;;;;8.44;75.68;99354.02;101296;1291;139162;-77
2022/11/05 03:15:53;;;;;;;27.50;14.80;;;;;;;8.41;75.73;99357.21;100961;1299;109761;-77
2022/11/05 03:18:26;;;;;;;22.40;14.10;;;;;;;8.39;75.74;99360.09;99706;1296;138346;-78
2022/11/05 03:21:01;;;;;;;23.90;14.50;;;;;;;8.37;75.84;99362.58;99914;1296;96477;-78
2022/11/05 03:23:33;;;;;;;25.90;14.40;;;;;;;8.35;75.86;99367.14;99790;1296;106777;-78
2022/11/05 03:26:05;;;;;;;27.40;15.20;;;;;;;8.35;75.98;99377.19;99606;1299;181616;-78
2022/11/05 03:28:38;;;;;;;24.60;15.40;;;;;;;8.32;76.05;99374.87;99862;1289;107984;-78
2022/11/05 03:31:07;;;;;;;27.30;14.30;;;;;;;8.30;76.06;99374.08;99654;1289;139157;-76
2022/11/05 03:33:37;;;;;;;27.60;15.40;;;;;;;8.30;76.30;99381.67;99813;1299;98185;-78
2022/11/05 03:36:12;;;;;;;29.50;14.70;;;;;;;8.27;76.22;99380.92;99842;1291;108815;-77
2022/11/05 03:38:43;;;;;;;28.60;15.70;;;;;;;8.26;76.41;99383.41;101404;1289;94541;-79
2022/11/05 03:41:15;;;;;;;25.80;15.20;;;;;;;8.24;76.84;99375.49;101376;1292;110144;-78
2022/11/05 03:43:48;;;;;;;26.90;15.50;;;;;;;8.22;76.91;99376.10;101254;1285;138142;-78
2022/11/05 03:46:20;;;;;;;28.90;15.70;;;;;;;8.19;77.16;99377.77;101373;1292;94622;-79
2022/11/05 03:48:51;;;;;;;30.00;15.50;;;;;;;8.15;77.36;99383.26;101297;1299;138666;-78
2022/11/05 03:51:27;;;;;;;31.20;15.60;;;;;;;8.08;77.43;99387.68;101389;1297;94557;-78
2022/11/05 03:53:58;;;;;;;27.30;15.20;;;;;;;8.03;77.70;99387.67;101433;1297;110232;-77
2022/11/05 03:56:33;;;;;;;30.70;15.30;;;;;;;8.00;78.03;99389.00;101294;1292;138847;-78
2022/11/05 03:59:02;;;;;;;27.20;15.90;;;;;;;7.98;78.06;99392.35;101430;1290;94420;-78
2022/11/05 04:01:29;;;;;;;28.50;15.70;;;;;;;8.00;78.11;99398.54;101338;1297;138024;-78
2022/11/05 04:03:57;;;;;;;27.90;15.90;;;;;;;8.00;78.31;99403.22;101374;1290;94443;-78
2022/11/05 04:14:38;;;;;;;24.80;15.20;;;;;;;7.92;78.89;99413.87;99886;1297;106871;-78
2022/11/05 04:17:08;;;;;;;29.10;15.80;;;;;;;7.90;79.02;99414.80;99897;1297;96491;-78
2022/11/05 04:25:07;;;;;;;27.80;15.40;;;;;;;7.87;79.24;99414.17;99740;1292;138261;-77
2022/11/05 04:27:34;;;;;;;27.40;15.90;;;;;;;7.87;79.38;99416.27;99936;1289;107432;-78
2022/11/05 04:30:20;;;;;;;28.90;16.20;;;;;;;7.86;79.40;99425.30;99842;1281;96714;-77
2022/11/05 04:33:06;;;;;;;29.10;15.70;;;;;;;7.87;79.21;99435.14;99881;1290;109461;-77
2022/11/05 04:35:35;;;;;;;28.40;16.30;;;;;;;7.87;79.23;99433.39;99842;1291;107583;-77
2022/11/05 04:38:03;;;;;;;29.00;15.60;;;;;;;7.89;79.42;99431.60;99988;1297;138042;-78
2022/11/05 04:40:30;;;;;;;26.50;16.10;;;;;;;7.93;79.31;99436.89;99878;1288;107738;-78
2022/11/05 04:42:57;;;;;;;28.50;15.90;;;;;;;7.95;79.40;99448.39;99622;1299;138273;-77
2022/11/05 04:45:26;;;;;;;24.40;15.30;;;;;;;7.96;79.46;99446.47;99929;1297;109648;-77
2022/11/05 04:47:53;;;;;;;30.50;16.00;;;;;;;7.95;79.43;99446.50;99822;1296;107457;-77
2022/11/05 04:50:20;;;;;;;25.50;15.10;;;;;;;7.95;79.47;99453.40;99771;1291;139720;-77
2022/11/05 04:52:47;;;;;;;29.70;16.70;;;;;;;7.96;79.64;99464.45;99891;1297;107583;-77
2022/11/05 04:55:15;;;;;;;30.10;16.90;;;;;;;7.95;79.70;99470.04;99729;1298;138624;-77
2022/11/05 04:57:42;;;;;;;27.70;16.80;;;;;;;7.93;79.79;99465.27;99908;1291;109904;-76
2022/11/05 05:00:10;;;;;;;28.50;17.10;;;;;;;7.89;79.84;99472.11;99918;1297;107091;-76
2022/11/05 05:02:38;;;;;;;32.20;18.10;;;;;;;7.85;80.03;99475.02;101347;1292;137888;-77
2022/11/05 05:05:05;;;;;;;33.30;17.70;;;;;;;7.82;80.22;99481.19;99935;1289;108884;-76
2022/11/05 05:07:34;;;;;;;30.80;18.40;;;;;;;7.78;80.28;99485.13;99734;1305;138038;-77
2022/11/05 05:10:01;;;;;;;27.20;16.50;;;;;;;7.75;80.68;99482.80;99916;1289;109942;-76
2022/11/05 05:12:28;;;;;;;32.00;18.30;;;;;;;7.72;80.87;99481.52;99775;1296;138413;-76
2022/11/05 05:14:55;;;;;;;35.60;18.00;;;;;;;7.66;81.20;99473.56;99826;1295;96541;-76
2022/11/05 05:17:22;;;;;;;31.70;18.00;;;;;;;7.63;81.49;99470.39;99770;1292;108483;-76
2022/11/05 05:22:34;;;;;;;31.30;17.70;;;;;;;7.58;81.84;99476.96;99965;1282;109571;-76
2022/11/05 05:25:01;;;;;;;31.70;17.90;;;;;;;7.55;82.10;99482.60;99718;1291;137955;-76
2022/11/05 05:27:29;;;;;;;29.00;18.10;;;;;;;7.52;82.31;99485.97;99929;1291;96616;-77
2022/11/05 05:29:56;;;;;;;32.10;18.00;;;;;;;7.50;82.45;99479.98;99865;1289;107701;-76
2022/11/05 05:32:24;;;;;;;34.20;18.80;;;;;;;7.49;82.57;99481.74;99837;1289;138323;-78
2022/11/05 05:34:51;;;;;;;30.70;17.70;;;;;;;7.49;82.62;99490.55;99799;1297;109797;-77
2022/11/05 05:37:20;;;;;;;28.70;17.30;;;;;;;7.48;82.77;99490.59;99793;1286;137948;-78
2022/11/05 05:39:47;;;;;;;30.20;17.90;;;;;;;7.46;83.14;99498.27;99907;1296;97327;-77
2022/11/05 05:42:15;;;;;;;30.70;18.50;;;;;;;7.42;83.56;99500.64;99920;1290;105930;-77
2022/11/05 05:44:42;;;;;;;37.00;18.90;;;;;;;7.38;83.91;99503.36;99871;1290;96389;-78
2022/11/05 05:47:09;;;;;;;31.70;19.00;;;;;;;7.36;83.78;99498.40;99904;1283;110558;-77
2022/11/05 05:49:36;;;;;;;32.70;18.70;;;;;;;7.35;84.17;99507.27;99730;1291;138025;-78
2022/11/05 05:52:04;;;;;;;31.60;18.90;;;;;;;7.32;84.24;99508.02;99810;1281;96581;-78
2022/11/05 05:54:31;;;;;;;30.90;18.90;;;;;;;7.31;84.67;99508.59;99787;1297;138323;-77
2022/11/05 05:57:06;;;;;;;34.60;20.00;;;;;;;7.28;84.86;99512.80;99859;1289;96200;-77
2022/11/05 05:59:33;;;;;;;34.00;19.70;;;;;;;7.27;84.84;99520.48;99884;1291;109534;-77
2022/11/05 06:02:00;;;;;;;31.90;20.80;;;;;;;7.25;85.36;99519.30;99699;1287;138085;-77
2022/11/05 06:04:28;;;;;;;36.00;19.60;;;;;;;7.23;85.23;99518.17;99822;1290;96996;-78
2022/11/05 06:06:55;;;;;;;33.40;20.50;;;;;;;7.23;85.37;99516.44;99779;1284;139831;-77
2022/11/05 06:09:22;;;;;;;30.60;19.90;;;;;;;7.22;85.52;99518.56;99874;1291;96577;-79
2022/11/05 06:11:49;;;;;;;33.70;20.50;;;;;;;7.21;85.58;99533.46;99937;1297;108993;-76
2022/11/05 06:14:16;;;;;;;29.60;18.80;;;;;;;7.20;85.72;99543.15;99751;1297;137956;-76
2022/11/05 06:16:43;;;;;;;33.70;20.10;;;;;;;7.21;85.80;99533.11;99961;1287;96358;-75
2022/11/05 06:19:10;;;;;;;32.10;20.70;;;;;;;7.22;85.70;99531.70;99719;1291;139381;-74
2022/11/05 06:21:38;;;;;;;30.10;19.90;;;;;;;7.22;86.02;99541.03;99804;1291;96492;-76
2022/11/05 06:24:05;;;;;;;34.50;19.80;;;;;;;7.21;86.32;99538.48;99902;1281;108929;-77
2022/11/05 06:26:32;;;;;;;34.10;20.70;;;;;;;7.20;86.09;99539.36;99736;1291;137938;-77
2022/11/05 06:28:59;;;;;;;33.00;19.70;;;;;;;7.20;86.04;99542.83;99909;1292;96533;-76
2022/11/05 06:31:26;;;;;;;33.20;20.50;;;;;;;7.19;86.15;99546.65;99914;1298;137800;-78
2022/11/05 06:33:53;;;;;;;32.90;20.70;;;;;;;7.19;86.18;99546.49;99902;1299;96462;-75
2022/11/05 06:36:21;;;;;;;29.70;18.90;;;;;;;7.20;86.41;99546.09;99795;1291;138954;-75
2022/11/05 06:38:48;;;;;;;30.00;18.30;;;;;;;7.23;86.54;99544.13;99869;1296;108860;-76
2022/11/05 06:41:15;;;;;;;33.70;19.70;;;;;;;7.27;86.62;99551.42;99961;1290;96475;-75
2022/11/05 06:43:43;;;;;;;35.20;19.00;;;;;;;7.28;86.37;99551.20;99840;1289;139156;-79
2022/11/05 06:46:11;;;;;;;31.10;19.70;;;;;;;7.30;86.23;99553.60;99861;1297;96517;-76
2022/11/05 06:48:39;;;;;;;36.10;20.00;;;;;;;7.31;86.37;99558.58;99763;1290;138433;-76
2022/11/05 06:51:07;;;;;;;30.80;20.10;;;;;;;7.33;86.04;99555.23;99833;1290;107452;-77
2022/11/05 06:53:35;;;;;;;31.10;19.70;;;;;;;7.34;86.11;99548.27;99848;1297;96358;-76
2022/11/05 06:56:05;;;;;;;33.10;19.60;;;;;;;7.37;85.72;99552.52;99762;1290;137682;-77
2022/11/05 06:58:33;;;;;;;35.50;19.20;;;;;;;7.40;85.59;99547.59;99968;1285;96503;-79
2022/11/05 07:01:04;;;;;;;31.30;19.50;;;;;;;7.43;85.64;99557.33;99855;1288;139181;-78
2022/11/05 07:03:31;;;;;;;29.30;18.50;;;;;;;7.45;85.39;99558.15;99826;1284;108160;-75
2022/11/05 07:06:00;;;;;;;30.10;19.70;;;;;;;7.48;85.32;99566.02;99954;1291;96358;-77
2022/11/05 07:08:30;;;;;;;33.80;20.30;;;;;;;7.50;85.30;99563.88;101299;1298;138042;-78
2022/11/05 07:10:57;;;;;;;31.70;18.40;;;;;;;7.52;85.23;99563.61;101465;1288;94268;-78
2022/11/05 07:13:25;;;;;;;31.90;19.30;;;;;;;7.55;85.01;99557.31;101330;1296;138692;-78
2022/11/05 07:15:52;;;;;;;32.90;19.30;;;;;;;7.58;85.08;99568.80;101416;1292;108301;-79
2022/11/05 07:18:19;;;;;;;36.50;19.00;;;;;;;7.61;84.81;99570.45;101310;1293;140141;-77
2022/11/05 07:20:47;;;;;;;32.80;19.70;;;;;;;7.64;84.81;99573.31;99922;1291;108218;-76
2022/11/05 07:23:16;;;;;;;34.70;18.60;;;;;;;7.65;84.65;99564.42;99917;1296;96495;-78
2022/11/05 07:25:43;;;;;;;33.40;18.80;;;;;;;7.69;84.62;99572.80;99748;1289;137938;-78
2022/11/05 07:28:13;;;;;;;31.00;19.80;;;;;;;7.71;84.46;99570.64;99875;1297;107679;-79
2022/11/05 07:30:40;;;;;;;38.70;19.10;;;;;;;7.74;84.39;99574.20;99778;1289;138016;-78
2022/11/05 07:33:09;;;;;;;30.70;18.90;;;;;;;7.76;84.41;99568.27;99820;1297;108206;-78
2022/11/05 07:35:36;;;;;;;32.30;19.60;;;;;;;7.78;84.17;99566.13;99822;1283;96463;-77
2022/11/05 07:38:03;;;;;;;36.80;20.30;;;;;;;7.80;84.18;99578.84;99577;1284;138080;-78
2022/11/05 07:40:31;;;;;;;35.60;20.00;;;;;;;7.82;84.26;99592.27;99798;1287;109577;-74
2022/11/05 07:42:59;;;;;;;32.20;19.30;;;;;;;7.84;84.09;99594.83;99680;1290;138218;-76
2022/11/05 07:45:28;;;;;;;32.60;20.10;;;;;;;7.85;84.10;99594.42;99810;1290;108694;-77
2022/11/05 07:47:56;;;;;;;32.20;20.20;;;;;;;7.87;84.03;99602.33;99839;1290;96470;-77
2022/11/05 07:50:26;;;;;;;36.50;20.10;;;;;;;7.90;84.01;99604.67;99841;1283;137839;-76
2022/11/05 07:52:53;;;;;;;39.20;20.40;;;;;;;7.92;83.98;99610.33;99833;1289;107504;-76
2022/11/05 07:55:21;;;;;;;30.50;19.20;;;;;;;7.92;83.58;99613.99;100318;1294;138335;-75
2022/11/05 07:57:50;;;;;;;37.20;19.90;;;;;;;7.91;83.55;99617.65;101386;1290;107712;-76
2022/11/05 08:00:20;;;;;;;37.40;21.20;;;;;;;7.91;83.66;99613.48;101299;1288;95805;-75
2022/11/05 08:02:58;;;;;;;37.20;19.70;;;;;;;7.95;83.68;99625.83;100299;1292;109461;-76
2022/11/05 08:05:44;;;;;;;32.40;19.90;;;;;;;7.96;83.43;99638.95;100423;1281;107655;-78
2022/11/05 08:08:13;;;;;;;38.40;21.30;;;;;;;7.94;83.23;99640.92;99761;1283;137279;-77
2022/11/05 08:10:41;;;;;;;32.20;19.20;;;;;;;7.94;83.23;99641.28;99810;1292;107455;-78
2022/11/05 08:13:09;;;;;;;31.60;19.00;;;;;;;7.93;83.02;99639.41;99729;1297;138267;-77
2022/11/05 08:15:37;;;;;;;29.10;20.00;;;;;;;7.93;83.03;99635.06;99794;1289;108454;-77
2022/11/05 08:18:06;;;;;;;36.50;20.40;;;;;;;7.93;83.03;99639.23;99911;1289;105897;-79
2022/11/05 08:20:33;;;;;;;31.30;20.00;;;;;;;7.93;82.99;99635.41;99724;1290;137882;-77
2022/11/05 08:23:00;;;;;;;33.70;20.40;;;;;;;7.94;83.02;99639.00;99817;1292;107700;-77
2022/11/05 08:25:28;;;;;;;35.00;21.20;;;;;;;7.98;83.05;99634.73;99621;1290;138161;-76
2022/11/05 08:28:00;;;;;;;36.60;21.00;;;;;;;8.01;82.87;99634.26;99838;1292;109344;-78
2022/11/05 08:30:28;;;;;;;37.80;20.80;;;;;;;8.01;82.74;99636.00;99705;1290;137998;-77
2022/11/05 08:32:58;;;;;;;34.50;20.30;;;;;;;8.02;82.74;99635.11;99856;1292;96770;-77
2022/11/05 08:35:26;;;;;;;36.90;20.70;;;;;;;8.04;82.89;99630.90;99811;1290;107901;-76
2022/11/05 08:37:55;;;;;;;35.90;21.10;;;;;;;8.05;82.73;99634.86;99730;1295;138052;-76
2022/11/05 08:40:22;;;;;;;38.50;22.20;;;;;;;8.03;82.72;99641.14;99867;1297;108504;-76
2022/11/05 08:42:49;;;;;;;35.40;21.20;;;;;;;8.03;82.61;99644.09;99825;1295;138627;-75
2022/11/05 08:45:16;;;;;;;33.40;21.80;;;;;;;8.03;82.71;99648.23;99929;1290;96471;-76
2022/11/05 08:47:43;;;;;;;31.40;20.60;;;;;;;8.02;82.67;99644.29;99765;1289;107581;-75
2022/11/05 08:50:11;;;;;;;34.60;21.20;;;;;;;8.03;82.69;99637.33;99725;1297;139465;-76
2022/11/05 08:52:41;;;;;;;36.40;21.90;;;;;;;8.04;82.60;99634.16;99799;1290;109805;-76
2022/11/05 08:55:09;;;;;;;33.00;20.90;;;;;;;8.06;82.60;99634.64;99687;1289;138389;-75
2022/11/05 08:57:36;;;;;;;43.90;22.50;;;;;;;8.08;82.49;99639.95;99851;1294;97649;-75
2022/11/05 09:00:04;;;;;;;35.20;22.00;;;;;;;8.12;82.62;99650.21;99865;1290;107368;-75
2022/11/05 09:02:32;;;;;;;38.40;21.90;;;;;;;8.14;82.52;99657.06;99721;1291;138225;-75
2022/11/05 09:04:59;;;;;;;41.60;23.10;;;;;;;8.14;82.59;99666.93;99785;1292;109887;-76
2022/11/05 09:07:26;;;;;;;35.10;21.80;;;;;;;8.16;82.53;99677.95;99632;1291;138582;-76
2022/11/05 09:09:53;;;;;;;35.00;21.00;;;;;;;8.15;82.45;99679.01;99790;1290;97083;-75
2022/11/05 09:12:20;;;;;;;37.10;22.50;;;;;;;8.15;82.40;99678.17;99839;1292;106535;-76
2022/11/05 09:14:48;;;;;;;36.30;22.00;;;;;;;8.16;82.52;99676.75;99784;1292;96909;-76
2022/11/05 09:17:19;;;;;;;40.80;22.90;;;;;;;8.17;82.39;99683.97;99782;1293;109522;-77
2022/11/05 09:19:46;;;;;;;41.90;23.00;;;;;;;8.18;82.44;99683.95;99625;1291;138786;-77
2022/11/05 09:22:13;;;;;;;38.30;22.90;;;;;;;8.20;82.53;99683.70;99899;1290;96483;-76
2022/11/05 09:24:42;;;;;;;34.80;22.50;;;;;;;8.23;82.43;99686.21;99753;1290;139306;-77
2022/11/05 09:27:10;;;;;;;37.30;22.70;;;;;;;8.25;82.41;99683.56;99815;1291;97001;-76
2022/11/05 09:29:37;;;;;;;38.70;23.60;;;;;;;8.25;82.31;99688.05;99830;1289;108791;-77
2022/11/05 09:32:04;;;;;;;39.10;21.80;;;;;;;8.26;82.41;99682.32;99686;1290;138022;-79
2022/11/05 09:34:32;;;;;;;34.80;21.30;;;;;;;8.28;82.31;99683.98;99771;1290;98004;-78
2022/11/05 09:36:59;;;;;;;38.80;22.30;;;;;;;8.29;82.13;99688.30;99778;1295;141782;-79
2022/11/05 09:39:26;;;;;;;39.10;22.20;;;;;;;8.30;82.14;99691.02;99832;1293;98088;-77
2022/11/05 09:41:57;;;;;;;37.70;22.20;;;;;;;8.33;82.22;99688.34;99938;1291;109798;-78
2022/11/05 09:44:32;;;;;;;34.70;22.50;;;;;;;8.37;82.12;99694.64;99729;1292;138066;-77
2022/11/05 09:47:02;;;;;;;37.10;22.70;;;;;;;8.38;81.98;99703.41;99912;1281;96359;-75
2022/11/05 09:49:34;;;;;;;37.50;22.10;;;;;;;8.41;81.93;99712.67;99702;1296;138093;-76
2022/11/05 09:52:01;;;;;;;36.70;22.40;;;;;;;8.45;82.08;99708.40;99830;1297;97053;-76
2022/11/05 09:54:32;;;;;;;40.10;21.90;;;;;;;8.50;81.98;99719.18;99724;1290;138305;-77
2022/11/05 09:57:00;;;;;;;43.80;22.20;;;;;;;8.54;81.81;99722.51;99764;1293;107422;-77
2022/11/05 09:59:31;;;;;;;37.60;21.30;;;;;;;8.59;81.94;99726.48;99782;1299;96364;-77
2022/11/05 10:02:04;;;;;;;35.40;22.10;;;;;;;8.63;81.72;99727.10;99656;1284;138153;-76
2022/11/05 10:04:33;;;;;;;34.20;21.60;;;;;;;8.64;81.44;99727.56;99830;1283;96953;-77
2022/11/05 10:07:04;;;;;;;36.10;21.20;;;;;;;8.66;81.51;99725.41;99685;1290;139708;-76
2022/11/05 10:09:36;;;;;;;34.20;21.50;;;;;;;8.71;81.57;99732.88;99847;1297;107802;-77
2022/11/05 10:12:07;;;;;;;33.20;21.90;;;;;;;8.81;81.80;99737.92;99836;1289;97045;-76
2022/11/05 10:14:41;;;;;;;39.30;22.80;;;;;;;8.91;81.76;99743.11;99744;1298;137157;-76
2022/11/05 10:17:12;;;;;;;37.90;23.50;;;;;;;8.98;81.47;99749.84;99944;1283;96507;-76
2022/11/05 10:19:44;;;;;;;38.90;23.60;;;;;;;9.01;81.40;99752.15;99826;1296;137980;-76
2022/11/05 10:22:15;;;;;;;38.90;23.60;;;;;;;9.03;81.15;99751.21;99947;1297;106146;-76
2022/11/05 10:24:45;;;;;;;35.60;23.40;;;;;;;9.04;80.96;99752.41;99847;1290;138378;-75
2022/11/05 10:27:18;;;;;;;37.80;23.70;;;;;;;9.03;80.87;99753.12;99874;1290;107968;-74
2022/11/05 10:29:45;;;;;;;38.40;22.90;;;;;;;9.03;80.93;99759.88;101464;1296;94350;-76
2022/11/05 10:32:20;;;;;;;38.50;22.00;;;;;;;9.04;80.88;99758.48;100611;1292;138061;-76
2022/11/05 10:34:47;;;;;;;42.10;22.60;;;;;;;9.04;80.97;99761.92;99874;1290;108068;-76
2022/11/05 10:37:14;;;;;;;35.70;22.20;;;;;;;9.06;80.92;99762.55;99833;1297;137955;-73
2022/11/05 10:39:41;;;;;;;38.00;23.10;;;;;;;9.07;80.94;99769.29;99934;1287;107154;-75
2022/11/05 10:42:21;;;;;;;39.80;24.70;;;;;;;9.08;80.81;99774.64;99791;1291;96493;-74
2022/11/05 10:44:56;;;;;;;40.90;25.20;;;;;;;9.06;80.97;99772.08;100672;1291;110148;-75
2022/11/05 10:47:40;;;;;;;38.90;24.10;;;;;;;9.05;81.00;99767.80;101410;1298;107643;-74
2022/11/05 10:50:11;;;;;;;37.40;23.90;;;;;;;9.05;81.13;99765.38;101314;1284;138297;-74
2022/11/05 10:52:42;;;;;;;40.30;23.10;;;;;;;9.06;81.18;99761.34;101370;1285;106688;-75
2022/11/05 10:55:18;;;;;;;37.90;23.30;;;;;;;9.08;81.29;99761.27;101291;1293;138393;-75
2022/11/05 10:57:47;;;;;;;41.50;24.90;;;;;;;9.10;81.29;99762.93;100352;1290;111401;-75
2022/11/05 11:00:28;;;;;;;43.40;25.00;;;;;;;9.15;81.49;99759.66;99926;1284;107646;-75
2022/11/05 11:02:56;;;;;;;40.80;24.70;;;;;;;9.19;81.39;99761.97;99926;1290;96480;-73
2022/11/05 11:05:27;;;;;;;38.40;24.70;;;;;;;9.19;81.61;99760.23;99913;1289;107070;-74
2022/11/05 11:07:58;;;;;;;45.70;26.20;;;;;;;9.19;81.65;99765.45;99672;1293;137493;-73
2022/11/05 11:10:26;;;;;;;42.00;25.90;;;;;;;9.15;81.70;99769.23;99754;1299;110324;-74
2022/11/05 11:12:54;;;;;;;41.40;25.60;;;;;;;9.14;81.94;99774.09;99780;1283;138509;-74
2022/11/05 11:15:26;;;;;;;41.10;25.30;;;;;;;9.10;82.05;99774.91;99933;1290;96636;-74
2022/11/05 11:17:54;;;;;;;41.10;25.40;;;;;;;9.07;82.32;99780.21;99939;1290;107893;-75
2022/11/05 11:20:27;;;;;;;37.90;25.30;;;;;;;9.06;82.53;99784.23;99784;1293;139097;-74
2022/11/05 11:23:11;;;;;;;41.00;24.40;;;;;;;9.07;82.75;99784.89;99931;1283;109529;-73
2022/11/05 11:25:46;;;;;;;44.30;25.00;;;;;;;9.07;82.90;99785.42;99744;1297;138134;-74
2022/11/05 11:28:21;;;;;;;46.00;24.60;;;;;;;9.08;83.00;99783.31;99885;1290;96344;-75
2022/11/05 11:30:57;;;;;;;41.60;24.30;;;;;;;9.09;83.28;99783.77;101274;1300;138240;-75
2022/11/05 11:33:28;;;;;;;43.10;24.90;;;;;;;9.12;83.40;99788.20;100285;1296;96461;-74
2022/11/05 11:35:56;;;;;;;46.40;25.20;;;;;;;9.13;83.48;99789.74;99862;1283;110087;-75
2022/11/05 11:38:25;;;;;;;41.40;24.60;;;;;;;9.12;83.57;99791.87;99771;1281;138051;-74
2022/11/05 11:40:59;;;;;;;37.50;24.10;;;;;;;9.12;83.61;99792.70;99920;1291;96482;-75
2022/11/05 11:43:30;;;;;;;43.00;25.60;;;;;;;9.14;83.69;99791.28;99759;1297;137955;-73
2022/11/05 11:45:58;;;;;;;41.10;24.40;;;;;;;9.16;83.90;99791.56;99898;1289;96490;-76
2022/11/05 11:48:35;;;;;;;45.90;25.60;;;;;;;9.18;83.88;99791.66;99719;1291;138125;-75
2022/11/05 11:51:18;;;;;;;43.90;26.60;;;;;;;9.19;84.01;99794.73;99764;1291;107474;-76
2022/11/05 11:53:47;;;;;;;44.30;24.70;;;;;;;9.23;84.11;99794.97;99873;1290;96992;-73
2022/11/05 11:56:21;;;;;;;42.80;25.70;;;;;;;9.24;84.07;99796.98;99773;1297;138077;-74
2022/11/05 11:58:50;;;;;;;43.90;25.10;;;;;;;9.25;84.13;99799.21;99846;1291;96346;-74
2022/11/05 12:01:51;;;;;;;42.00;26.60;;;;;;;9.25;84.20;99805.64;99795;1292;138049;-74
2022/11/05 12:04:40;;;;;;;35.50;24.50;;;;;;;9.24;84.25;99814.51;99794;1291;106743;-74
2022/11/05 12:07:19;;;;;;;42.10;25.80;;;;;;;9.23;84.47;99814.90;99773;1290;138605;-74
2022/11/05 12:10:17;;;;;;;44.60;25.30;;;;;;;9.23;84.57;99818.90;99850;1293;106881;-75